Time;durP1;ratioP1;P1;durP2;ratioP2;P2;SDS_P1;SDS_P2;PMS_P1;PMS_P2;Temp;Humidity;BMP_temperature;BMP_pressure;BME280_temperature;BME280_humidity;BME280_pressure;Samples;Min_cycle;Max_cycle;Signal;HPM_P1;HPM_P2
2023/05/15 00:01:19;;;;;;;0.50;0.50;;;12.10;99.90;;;;;;4983717;28;20075;-66
2023/05/15 00:03:45;;;;;;;0.93;0.50;;;12.10;99.90;;;;;;4998399;28;20053;-67
2023/05/15 00:06:10;;;;;;;0.70;0.63;;;12.20;99.90;;;;;;5010141;28;20038;-67
2023/05/15 00:08:36;;;;;;;0.20;0.20;;;12.10;99.90;;;;;;5010167;28;20049;-66
2023/05/15 00:11:02;;;;;;;0.95;0.95;;;12.10;99.90;;;;;;5008782;28;20515;-67
2023/05/15 00:13:27;;;;;;;1.10;0.93;;;12.10;99.90;;;;;;5005640;28;20046;-65
2023/05/15 00:15:53;;;;;;;0.30;0.30;;;12.10;99.90;;;;;;5008894;28;20042;-67
2023/05/15 00:18:18;;;;;;;0.95;0.45;;;12.20;99.90;;;;;;4984372;28;20097;-67
2023/05/15 00:20:44;;;;;;;1.40;1.33;;;12.20;99.90;;;;;;5005308;28;20038;-67
2023/05/15 00:23:10;;;;;;;0.55;0.35;;;12.30;99.90;;;;;;5008950;28;20042;-67
2023/05/15 00:25:35;;;;;;;0.28;0.28;;;12.20;99.90;;;;;;5014563;28;20037;-67
2023/05/15 00:28:01;;;;;;;2.13;1.55;;;12.20;99.90;;;;;;5004215;28;20041;-67
2023/05/15 00:30:27;;;;;;;1.45;1.35;;;12.20;99.90;;;;;;5003783;28;20057;-66
2023/05/15 00:32:52;;;;;;;1.13;1.02;;;12.20;99.90;;;;;;5003358;28;20054;-67
2023/05/15 00:35:18;;;;;;;0.15;0.13;;;12.10;99.90;;;;;;4986610;28;20100;-67
2023/05/15 00:37:43;;;;;;;0.40;0.40;;;12.20;99.90;;;;;;5005232;28;20404;-67
2023/05/15 00:40:11;;;;;;;0.35;0.35;;;12.10;99.90;;;;;;4982674;28;20049;-67
2023/05/15 00:42:37;;;;;;;0.30;0.30;;;12.00;99.90;;;;;;5005702;28;20112;-66
2023/05/15 00:45:07;;;;;;;0.50;0.50;;;12.00;99.90;;;;;;5007498;28;20046;-66
2023/05/15 00:47:34;;;;;;;0.28;0.28;;;11.90;99.90;;;;;;4997737;28;20050;-66
2023/05/15 00:50:00;;;;;;;0.28;0.28;;;12.00;99.90;;;;;;5004495;28;20113;-66
2023/05/15 00:52:26;;;;;;;0.40;0.40;;;11.90;99.90;;;;;;5007984;28;20410;-67
2023/05/15 00:54:51;;;;;;;2.75;0.40;;;11.70;99.90;;;;;;5005390;28;20044;-67
2023/05/15 00:57:18;;;;;;;1.45;0.73;;;11.80;99.90;;;;;;5002086;28;20364;-67
2023/05/15 00:59:45;;;;;;;0.63;0.63;;;11.90;99.90;;;;;;5008956;28;20371;-66
2023/05/15 01:02:17;;;;;;;0.50;0.50;;;11.80;99.90;;;;;;5000946;28;20041;-67
2023/05/15 01:04:43;;;;;;;0.20;0.20;;;11.80;99.90;;;;;;5005700;28;20133;-66
2023/05/15 01:07:08;;;;;;;0.55;0.55;;;11.80;99.90;;;;;;4998790;28;20553;-66
2023/05/15 01:09:35;;;;;;;0.40;0.38;;;11.70;99.90;;;;;;5002594;28;20048;-66
2023/05/15 01:12:03;;;;;;;2.45;0.70;;;11.70;99.90;;;;;;5013656;28;20116;-66
2023/05/15 01:14:29;;;;;;;0.65;0.65;;;11.80;99.90;;;;;;5011014;28;20069;-66
2023/05/15 01:16:55;;;;;;;0.38;0.38;;;11.80;99.90;;;;;;5003492;28;20034;-66
2023/05/15 01:19:20;;;;;;;1.20;1.13;;;11.80;99.90;;;;;;5000534;28;20465;-66
2023/05/15 01:22:14;;;;;;;0.95;0.95;;;11.90;99.90;;;;;;5000420;28;20048;-67
2023/05/15 01:24:59;;;;;;;;;;;11.80;99.90;;;;;;5005425;28;20050;-66
2023/05/15 01:27:38;;;;;;;0.17;0.17;;;11.90;99.90;;;;;;4999847;28;19972;-66
2023/05/15 01:30:10;;;;;;;0.43;0.43;;;11.90;99.90;;;;;;5001271;28;20045;-66
2023/05/15 01:32:53;;;;;;;1.45;1.35;;;11.90;99.90;;;;;;5006845;28;20367;-66
2023/05/15 01:35:34;;;;;;;0.55;0.52;;;11.90;99.90;;;;;;5008848;28;20053;-67
2023/05/15 01:38:06;;;;;;;0.45;0.45;;;11.90;99.90;;;;;;4998975;28;20053;-66
2023/05/15 01:40:31;;;;;;;1.30;0.98;;;12.00;99.90;;;;;;5009193;28;20119;-66
2023/05/15 01:43:05;;;;;;;4.95;1.63;;;12.00;99.90;;;;;;5008569;28;20042;-66
2023/05/15 01:45:32;;;;;;;0.85;0.85;;;12.00;99.90;;;;;;5009854;28;20045;-66
2023/05/15 01:47:59;;;;;;;0.30;0.30;;;12.00;99.90;;;;;;5001367;28;20077;-66
2023/05/15 01:50:26;;;;;;;0.63;0.63;;;12.10;99.90;;;;;;5008959;28;20049;-67
2023/05/15 01:52:57;;;;;;;1.67;1.58;;;12.10;99.90;;;;;;5009607;28;20484;-66
2023/05/15 01:55:24;;;;;;;0.22;0.22;;;12.10;99.90;;;;;;4999002;28;20037;-66
2023/05/15 01:57:50;;;;;;;0.80;0.80;;;12.00;99.90;;;;;;5007514;28;20136;-66
2023/05/15 02:00:17;;;;;;;0.10;0.10;;;12.00;99.90;;;;;;4998763;28;20105;-66
2023/05/15 02:02:44;;;;;;;1.02;0.95;;;11.90;99.90;;;;;;5004660;28;20046;-66
2023/05/15 02:05:11;;;;;;;0.43;0.43;;;12.00;99.90;;;;;;4980639;28;20042;-66
2023/05/15 02:07:37;;;;;;;1.40;0.63;;;11.90;99.90;;;;;;5009626;28;20041;-66
2023/05/15 02:10:04;;;;;;;1.45;0.28;;;11.90;99.90;;;;;;5006179;28;20046;-66
2023/05/15 02:12:30;;;;;;;0.43;0.43;;;12.00;99.90;;;;;;4980141;28;20398;-66
2023/05/15 02:14:58;;;;;;;0.63;0.63;;;11.90;99.90;;;;;;5003070;28;20529;-66
2023/05/15 02:17:23;;;;;;;1.33;1.23;;;12.00;99.90;;;;;;5000916;28;20045;-66
2023/05/15 02:19:49;;;;;;;0.10;0.10;;;11.90;99.90;;;;;;4996395;28;20087;-66
2023/05/15 02:22:15;;;;;;;0.17;0.17;;;11.90;99.90;;;;;;4991436;28;20207;-66
2023/05/15 02:24:41;;;;;;;0.75;0.75;;;11.80;99.90;;;;;;5005957;28;20060;-66
2023/05/15 02:27:12;;;;;;;1.48;0.63;;;11.80;99.90;;;;;;5002379;28;20057;-66
2023/05/15 02:29:58;;;;;;;0.22;0.22;;;11.70;99.90;;;;;;4994626;28;20148;-66
2023/05/15 02:32:36;;;;;;;0.47;0.47;;;11.70;99.90;;;;;;5001340;28;20043;-66
2023/05/15 02:35:21;;;;;;;0.40;0.40;;;11.70;99.90;;;;;;5002502;28;20046;-66
2023/05/15 02:37:51;;;;;;;0.57;0.57;;;11.60;99.90;;;;;;5007088;28;20508;-66
2023/05/15 02:40:19;;;;;;;0.75;0.57;;;11.60;99.90;;;;;;4992799;28;20038;-66
2023/05/15 02:42:46;;;;;;;0.28;0.28;;;11.60;99.90;;;;;;5005722;28;20429;-66
2023/05/15 02:45:12;;;;;;;0.20;0.20;;;11.50;99.90;;;;;;5008053;28;20041;-66
2023/05/15 02:47:39;;;;;;;0.65;0.65;;;11.50;99.90;;;;;;4985855;28;20049;-66
2023/05/15 02:50:06;;;;;;;0.73;0.73;;;11.50;99.90;;;;;;4996869;28;20076;-66
2023/05/15 02:52:33;;;;;;;0.20;0.20;;;11.50;99.90;;;;;;4999908;28;20050;-66
2023/05/15 02:54:59;;;;;;;0.65;0.65;;;11.50;99.90;;;;;;5007356;28;20064;-66
2023/05/15 02:57:25;;;;;;;0.63;0.63;;;11.50;99.90;;;;;;5002732;28;20041;-66
2023/05/15 02:59:53;;;;;;;0.20;0.20;;;11.50;99.90;;;;;;4996151;28;20463;-66
2023/05/15 03:02:19;;;;;;;1.23;0.85;;;11.40;99.90;;;;;;5006368;28;20096;-66
2023/05/15 03:04:44;;;;;;;0.40;0.40;;;11.40;99.90;;;;;;5008097;28;20047;-66
2023/05/15 03:07:10;;;;;;;0.50;0.50;;;11.40;99.90;;;;;;5005282;28;20037;-66
2023/05/15 03:09:36;;;;;;;0.10;0.10;;;11.40;99.90;;;;;;5002037;28;20038;-66
2023/05/15 03:12:01;;;;;;;0.30;0.30;;;11.40;99.90;;;;;;4999951;28;20052;-66
2023/05/15 03:14:27;;;;;;;2.83;1.20;;;11.30;99.90;;;;;;5000027;28;20490;-66
2023/05/15 03:16:52;;;;;;;0.28;0.28;;;11.30;99.90;;;;;;5006193;28;20070;-66
2023/05/15 03:19:18;;;;;;;0.47;0.47;;;11.40;99.90;;;;;;5005836;28;20046;-66
2023/05/15 03:21:43;;;;;;;0.30;0.30;;;11.40;99.90;;;;;;4998701;28;20058;-65
2023/05/15 03:24:09;;;;;;;0.95;0.75;;;11.30;99.90;;;;;;5008573;28;20117;-66
2023/05/15 03:26:35;;;;;;;1.58;1.05;;;11.30;99.90;;;;;;4998649;28;20059;-66
2023/05/15 03:29:01;;;;;;;0.17;0.17;;;11.30;99.90;;;;;;5006651;28;20458;-66
2023/05/15 03:31:26;;;;;;;0.30;0.30;;;11.30;99.90;;;;;;5006948;28;20504;-66
2023/05/15 03:33:52;;;;;;;0.30;0.30;;;11.20;99.90;;;;;;5013186;28;20068;-66
2023/05/15 03:36:18;;;;;;;0.40;0.40;;;11.30;99.90;;;;;;5011544;28;20048;-66
2023/05/15 03:38:43;;;;;;;1.88;1.20;;;11.20;99.90;;;;;;5007615;28;20490;-66
2023/05/15 03:41:09;;;;;;;0.70;0.70;;;11.20;99.90;;;;;;5003893;28;20038;-66
2023/05/15 03:43:35;;;;;;;0.20;0.20;;;11.20;99.90;;;;;;5016298;28;20053;-66
2023/05/15 03:46:00;;;;;;;0.10;0.10;;;11.10;99.90;;;;;;5004264;28;20030;-66
2023/05/15 03:48:26;;;;;;;0.38;0.38;;;11.10;99.90;;;;;;5011410;28;20041;-66
2023/05/15 03:50:52;;;;;;;0.10;0.10;;;11.10;99.90;;;;;;5007915;28;20095;-66
2023/05/15 03:53:17;;;;;;;0.25;0.25;;;11.10;99.90;;;;;;5004656;28;20041;-66
2023/05/15 03:55:43;;;;;;;0.82;0.82;;;11.10;99.90;;;;;;4983949;28;20092;-66
2023/05/15 03:58:09;;;;;;;0.50;0.50;;;11.00;99.90;;;;;;5002454;28;20125;-66
2023/05/15 04:00:34;;;;;;;0.38;0.35;;;11.00;99.90;;;;;;5009037;28;20052;-66
2023/05/15 04:03:00;;;;;;;0.40;0.40;;;11.00;99.90;;;;;;5002504;28;20050;-66
2023/05/15 04:05:26;;;;;;;21.50;0.73;;;10.90;99.90;;;;;;5010207;28;20679;-66
2023/05/15 04:07:52;;;;;;;1.05;0.73;;;11.00;99.90;;;;;;5002684;28;20039;-66
2023/05/15 04:10:18;;;;;;;0.30;0.30;;;10.90;99.90;;;;;;5001335;28;20035;-66
2023/05/15 04:12:44;;;;;;;4.65;1.45;;;11.00;99.90;;;;;;4986753;28;20048;-66
2023/05/15 04:15:14;;;;;;;0.10;0.10;;;11.00;99.90;;;;;;5009673;28;20037;-66
2023/05/15 04:17:40;;;;;;;0.20;0.20;;;11.10;99.90;;;;;;5007481;28;20064;-66
2023/05/15 04:20:07;;;;;;;0.88;0.88;;;11.10;99.90;;;;;;5007066;28;20477;-66
2023/05/15 04:22:32;;;;;;;0.10;0.10;;;11.20;99.90;;;;;;5005999;28;20513;-66
2023/05/15 04:24:58;;;;;;;1.08;0.98;;;11.10;99.90;;;;;;5003362;28;20112;-66
2023/05/15 04:27:23;;;;;;;0.63;0.63;;;11.10;99.90;;;;;;5007841;28;20502;-66
2023/05/15 04:29:49;;;;;;;1.48;0.85;;;11.10;99.90;;;;;;5011832;28;20141;-66
2023/05/15 04:32:14;;;;;;;0.20;0.20;;;11.10;99.90;;;;;;4986271;28;20288;-67
2023/05/15 04:34:41;;;;;;;5.75;1.25;;;11.20;99.90;;;;;;5007370;28;20041;-66
2023/05/15 04:37:06;;;;;;;0.22;0.22;;;11.20;99.90;;;;;;4990833;28;20054;-66
2023/05/15 04:39:32;;;;;;;1.85;1.33;;;11.30;99.90;;;;;;5009462;28;20053;-66
2023/05/15 04:41:57;;;;;;;0.63;0.52;;;11.30;99.90;;;;;;5001168;28;20048;-66
2023/05/15 04:44:23;;;;;;;0.45;0.45;;;11.30;99.90;;;;;;5013458;28;20062;-66
2023/05/15 04:46:49;;;;;;;0.20;0.20;;;11.40;99.90;;;;;;5010122;28;20053;-66
2023/05/15 04:49:15;;;;;;;0.10;0.10;;;11.50;99.90;;;;;;5002064;28;20136;-66
2023/05/15 04:51:40;;;;;;;0.30;0.30;;;11.50;99.90;;;;;;5008623;28;20489;-66
2023/05/15 04:54:06;;;;;;;3.13;0.70;;;11.50;99.90;;;;;;5010855;28;20042;-66
2023/05/15 04:56:32;;;;;;;0.30;0.30;;;11.50;99.90;;;;;;5004855;28;20160;-67
2023/05/15 04:58:57;;;;;;;0.45;0.45;;;11.50;99.90;;;;;;5007769;28;20081;-66
2023/05/15 05:01:23;;;;;;;0.47;0.47;;;11.60;99.90;;;;;;5010566;28;20069;-66
2023/05/15 05:03:49;;;;;;;0.30;0.30;;;11.60;99.90;;;;;;5004792;28;20042;-66
2023/05/15 05:06:14;;;;;;;4.82;1.02;;;11.70;99.90;;;;;;5000705;28;20044;-66
2023/05/15 05:08:40;;;;;;;5.20;1.63;;;11.70;99.90;;;;;;5009719;28;20050;-66
2023/05/15 05:11:06;;;;;;;1.20;0.68;;;11.70;99.90;;;;;;5001135;28;20605;-66
2023/05/15 05:13:31;;;;;;;1.15;1.05;;;11.80;99.90;;;;;;5000959;28;20051;-66
2023/05/15 05:15:57;;;;;;;0.95;0.88;;;11.90;99.90;;;;;;5002431;28;20053;-66
2023/05/15 05:18:23;;;;;;;0.57;0.57;;;11.90;99.90;;;;;;5006796;28;20108;-66
2023/05/15 05:20:49;;;;;;;0.20;0.20;;;11.90;99.90;;;;;;4999454;28;20050;-66
2023/05/15 05:23:15;;;;;;;0.10;0.10;;;11.90;99.90;;;;;;5000748;28;20046;-66
2023/05/15 05:25:41;;;;;;;0.13;0.13;;;12.00;99.90;;;;;;5006590;28;20136;-66
2023/05/15 05:28:06;;;;;;;0.35;0.30;;;12.00;99.90;;;;;;5007984;28;20064;-66
2023/05/15 05:30:32;;;;;;;0.15;0.15;;;12.00;99.90;;;;;;5003981;28;20049;-66
2023/05/15 05:32:57;;;;;;;0.13;0.13;;;12.10;99.90;;;;;;5002199;28;20038;-66
2023/05/15 05:35:23;;;;;;;0.50;0.50;;;12.00;99.90;;;;;;4997676;28;20429;-66
2023/05/15 05:37:48;;;;;;;0.40;0.40;;;12.10;99.90;;;;;;5001303;28;20039;-67
2023/05/15 05:40:16;;;;;;;1.13;0.77;;;12.30;99.90;;;;;;5007401;28;20045;-66
2023/05/15 05:42:42;;;;;;;0.85;0.85;;;12.30;99.90;;;;;;5002356;28;20053;-67
2023/05/15 05:45:07;;;;;;;0.20;0.20;;;12.30;99.90;;;;;;5013538;28;20045;-66
2023/05/15 05:47:33;;;;;;;0.47;0.38;;;12.20;99.90;;;;;;4986431;28;20069;-66
2023/05/15 05:49:59;;;;;;;0.20;0.20;;;12.30;99.90;;;;;;4997381;28;20053;-66
2023/05/15 05:52:24;;;;;;;0.10;0.10;;;12.40;99.90;;;;;;5004567;28;20129;-66
2023/05/15 05:54:50;;;;;;;0.20;0.20;;;12.40;99.90;;;;;;5000053;28;20043;-67
2023/05/15 05:57:15;;;;;;;0.47;0.43;;;12.40;99.90;;;;;;4982568;28;20058;-66
2023/05/15 05:59:41;;;;;;;1.85;0.55;;;12.50;99.90;;;;;;5010262;28;20041;-65
2023/05/15 06:02:07;;;;;;;0.10;0.10;;;12.50;99.90;;;;;;5004018;28;20050;-66
2023/05/15 06:04:33;;;;;;;0.10;0.10;;;12.60;99.90;;;;;;5001337;28;20475;-66
2023/05/15 06:06:58;;;;;;;0.55;0.55;;;12.60;99.90;;;;;;5002539;28;20049;-66
2023/05/15 06:09:24;;;;;;;0.10;0.10;;;12.60;99.90;;;;;;5005904;28;20042;-67
2023/05/15 06:11:49;;;;;;;0.10;0.10;;;12.60;99.90;;;;;;5010014;28;20046;-66
2023/05/15 06:14:15;;;;;;;0.45;0.45;;;12.60;99.90;;;;;;5006252;28;20049;-66
2023/05/15 06:16:41;;;;;;;0.20;0.20;;;12.70;99.90;;;;;;5008424;28;20030;-66
2023/05/15 06:19:06;;;;;;;0.70;0.43;;;12.70;99.90;;;;;;5009947;28;20053;-66
2023/05/15 06:21:32;;;;;;;0.00;0.00;;;12.70;99.90;;;;;;4994476;28;20050;-66
2023/05/15 06:23:58;;;;;;;0.10;0.10;;;12.70;99.90;;;;;;5011734;28;20056;-66
2023/05/15 06:26:24;;;;;;;0.70;0.70;;;12.60;99.90;;;;;;5007705;28;20049;-66
2023/05/15 06:28:50;;;;;;;0.30;0.30;;;12.70;99.90;;;;;;5010966;28;20061;-66
2023/05/15 06:31:16;;;;;;;1.02;0.98;;;12.80;99.90;;;;;;5000714;28;20045;-66
2023/05/15 06:33:42;;;;;;;0.20;0.20;;;12.80;99.90;;;;;;5006685;28;20107;-66
2023/05/15 06:36:07;;;;;;;0.40;0.40;;;12.90;99.90;;;;;;5007516;28;20401;-66
2023/05/15 06:38:33;;;;;;;0.82;0.70;;;12.80;99.90;;;;;;4981936;28;20046;-66
2023/05/15 06:40:58;;;;;;;0.13;0.13;;;12.90;99.90;;;;;;5000670;28;20049;-66
2023/05/15 06:43:24;;;;;;;0.20;0.20;;;12.80;99.90;;;;;;5010864;28;20046;-64
2023/05/15 06:45:50;;;;;;;1.00;0.95;;;12.80;99.90;;;;;;5002103;28;20046;-66
2023/05/15 06:48:15;;;;;;;0.30;0.30;;;12.80;99.90;;;;;;5002523;28;20497;-66
2023/05/15 06:50:41;;;;;;;4.43;1.08;;;12.80;99.90;;;;;;5005165;28;20053;-66
2023/05/15 06:53:06;;;;;;;0.22;0.22;;;12.80;99.90;;;;;;4986290;28;20054;-66
2023/05/15 06:55:33;;;;;;;0.55;0.55;;;12.80;99.90;;;;;;5002677;28;20041;-66
2023/05/15 06:57:59;;;;;;;0.10;0.10;;;12.80;99.90;;;;;;5007622;28;20390;-66
2023/05/15 07:00:24;;;;;;;0.30;0.30;;;12.80;99.90;;;;;;4998988;28;20054;-66
2023/05/15 07:02:50;;;;;;;0.20;0.20;;;12.90;99.90;;;;;;5006168;28;20049;-66
2023/05/15 07:05:16;;;;;;;0.20;0.20;;;13.00;99.90;;;;;;4993126;28;20182;-66
2023/05/15 07:07:41;;;;;;;0.88;0.88;;;13.10;99.90;;;;;;5006974;28;20049;-66
2023/05/15 07:10:08;;;;;;;0.15;0.15;;;13.20;99.90;;;;;;5003075;28;20050;-65
2023/05/15 07:12:33;;;;;;;0.30;0.30;;;13.30;99.90;;;;;;5008835;28;20432;-65
2023/05/15 07:14:59;;;;;;;1.85;0.68;;;13.50;99.90;;;;;;5008705;28;20038;-66
2023/05/15 07:17:25;;;;;;;0.10;0.10;;;13.60;99.90;;;;;;5007449;28;20073;-66
2023/05/15 07:19:50;;;;;;;0.20;0.20;;;13.60;99.90;;;;;;5008573;28;20038;-66
2023/05/15 07:22:16;;;;;;;0.38;0.38;;;13.50;99.90;;;;;;5007920;28;20054;-66
2023/05/15 07:24:41;;;;;;;0.30;0.30;;;13.40;99.90;;;;;;5003917;28;20046;-66
2023/05/15 07:27:07;;;;;;;0.00;0.00;;;13.40;99.90;;;;;;5009657;28;20052;-66
2023/05/15 07:29:32;;;;;;;0.05;0.05;;;13.30;99.90;;;;;;5007535;28;20125;-66
2023/05/15 07:31:58;;;;;;;2.20;0.47;;;13.40;99.90;;;;;;5003030;28;20051;-66
2023/05/15 07:34:23;;;;;;;0.10;0.10;;;13.40;99.90;;;;;;5008797;28;20045;-65
2023/05/15 07:36:49;;;;;;;3.75;0.63;;;13.50;99.90;;;;;;4988631;28;20077;-66
2023/05/15 07:39:14;;;;;;;0.45;0.45;;;13.50;99.90;;;;;;4991795;28;20456;-66
2023/05/15 07:41:40;;;;;;;0.25;0.25;;;13.60;99.90;;;;;;5010601;28;20513;-66
2023/05/15 07:44:06;;;;;;;0.10;0.10;;;13.60;99.90;;;;;;4988938;28;20086;-66
2023/05/15 07:46:32;;;;;;;0.15;0.15;;;13.70;99.90;;;;;;5006514;28;20425;-66
2023/05/15 07:48:58;;;;;;;0.20;0.20;;;13.80;99.90;;;;;;5005046;28;20082;-65
2023/05/15 07:51:23;;;;;;;0.10;0.10;;;14.00;99.90;;;;;;5007947;28;20142;-66
2023/05/15 07:53:49;;;;;;;0.10;0.10;;;14.30;99.90;;;;;;5007143;28;20042;-66
2023/05/15 07:56:15;;;;;;;0.63;0.63;;;14.20;99.90;;;;;;5003899;28;21231;-66
2023/05/15 07:58:41;;;;;;;0.25;0.25;;;14.40;99.90;;;;;;5010770;28;20050;-66
2023/05/15 08:01:06;;;;;;;0.30;0.30;;;14.50;99.90;;;;;;4994312;28;20046;-66
2023/05/15 08:03:32;;;;;;;0.47;0.47;;;14.40;99.90;;;;;;5001561;28;20038;-66
2023/05/15 08:05:58;;;;;;;0.57;0.57;;;14.50;99.90;;;;;;5005657;28;20409;-66
2023/05/15 08:08:24;;;;;;;1.65;1.10;;;14.30;99.90;;;;;;5000868;28;20577;-66
2023/05/15 08:10:50;;;;;;;0.08;0.08;;;14.10;99.90;;;;;;5006378;28;20065;-66
2023/05/15 08:13:15;;;;;;;3.10;1.90;;;14.30;99.90;;;;;;5005436;28;20123;-66
2023/05/15 08:15:42;;;;;;;0.50;0.50;;;14.30;99.90;;;;;;5012129;28;20738;-66
2023/05/15 08:18:09;;;;;;;0.30;0.30;;;14.40;99.90;;;;;;4983375;28;20054;-66
2023/05/15 08:20:35;;;;;;;1.48;1.00;;;14.40;99.90;;;;;;5006424;28;20065;-66
2023/05/15 08:23:00;;;;;;;0.38;0.30;;;14.40;99.90;;;;;;5011989;28;20489;-66
2023/05/15 08:25:26;;;;;;;0.00;0.00;;;14.50;99.90;;;;;;5011198;28;20034;-66
2023/05/15 08:27:51;;;;;;;0.45;0.45;;;14.60;99.90;;;;;;5001881;28;20057;-66
2023/05/15 08:30:17;;;;;;;0.63;0.63;;;14.70;99.90;;;;;;5004442;28;20435;-66
2023/05/15 08:32:44;;;;;;;0.05;0.05;;;14.80;99.90;;;;;;5003752;28;20186;-66
2023/05/15 08:35:10;;;;;;;0.10;0.10;;;14.90;99.90;;;;;;5002629;28;20370;-66
2023/05/15 08:37:36;;;;;;;0.10;0.10;;;14.90;99.90;;;;;;5009521;28;20052;-66
2023/05/15 08:40:06;;;;;;;0.47;0.47;;;15.00;99.90;;;;;;5003889;28;20070;-66
2023/05/15 08:42:41;;;;;;;0.13;0.13;;;14.90;99.90;;;;;;5008874;28;20068;-66
2023/05/15 08:45:08;;;;;;;0.25;0.25;;;14.90;99.90;;;;;;5002634;28;20144;-66
2023/05/15 08:47:39;;;;;;;0.20;0.20;;;14.90;99.90;;;;;;5009249;28;20049;-66
2023/05/15 08:50:15;;;;;;;0.17;0.17;;;14.90;99.90;;;;;;5009371;28;20046;-66
2023/05/15 08:52:45;;;;;;;0.75;0.38;;;14.90;99.90;;;;;;4982143;28;20050;-66
2023/05/15 08:55:13;;;;;;;0.10;0.10;;;14.90;99.90;;;;;;5004985;28;20045;-66
2023/05/15 08:57:40;;;;;;;0.20;0.20;;;14.80;99.90;;;;;;4985245;28;20051;-66
2023/05/15 09:00:07;;;;;;;0.10;0.10;;;14.90;99.90;;;;;;5001389;28;20053;-66
2023/05/15 09:02:37;;;;;;;0.10;0.10;;;14.90;99.90;;;;;;4999678;28;20166;-66
2023/05/15 09:05:05;;;;;;;0.00;0.00;;;14.90;99.90;;;;;;4981103;28;20061;-67
2023/05/15 09:07:31;;;;;;;0.20;0.20;;;14.90;99.90;;;;;;5001852;28;20050;-66
2023/05/15 09:09:57;;;;;;;0.10;0.10;;;15.00;99.90;;;;;;5006826;28;20097;-67
2023/05/15 09:12:25;;;;;;;0.40;0.40;;;14.90;99.90;;;;;;5009630;28;20049;-66
2023/05/15 09:14:51;;;;;;;5.07;0.75;;;14.90;99.90;;;;;;4998456;28;20042;-66
2023/05/15 09:17:16;;;;;;;0.20;0.20;;;14.90;99.90;;;;;;4997645;28;20076;-66
2023/05/15 09:19:42;;;;;;;0.10;0.10;;;15.00;99.90;;;;;;5004918;28;20548;-66
2023/05/15 09:22:23;;;;;;;0.22;0.22;;;15.10;99.90;;;;;;5007661;28;20120;-66
2023/05/15 09:24:51;;;;;;;0.43;0.43;;;15.10;99.90;;;;;;5004576;28;20046;-67
2023/05/15 09:27:18;;;;;;;0.30;0.30;;;14.90;99.90;;;;;;4982522;28;20050;-66
2023/05/15 09:29:44;;;;;;;0.32;0.28;;;14.90;99.90;;;;;;5001196;28;20050;-67
2023/05/15 09:32:14;;;;;;;0.03;0.03;;;15.00;99.90;;;;;;5008469;28;20132;-66
2023/05/15 09:34:42;;;;;;;0.20;0.20;;;15.00;99.90;;;;;;5003153;28;20047;-66
2023/05/15 09:37:09;;;;;;;1.38;1.30;;;15.20;99.90;;;;;;5002839;28;20045;-67
2023/05/15 09:39:42;;;;;;;0.95;0.63;;;15.20;99.90;;;;;;5008584;28;20053;-66
2023/05/15 09:42:12;;;;;;;5.93;0.98;;;15.20;99.90;;;;;;4990719;28;20046;-66
2023/05/15 09:44:47;;;;;;;0.10;0.10;;;15.20;99.90;;;;;;5004683;28;20053;-67
2023/05/15 09:47:15;;;;;;;0.55;0.47;;;15.20;99.90;;;;;;5002584;28;20149;-65
2023/05/15 09:49:43;;;;;;;0.17;0.17;;;15.20;99.90;;;;;;5006236;28;20046;-66
2023/05/15 09:52:09;;;;;;;0.57;0.50;;;15.10;99.90;;;;;;5004087;28;20180;-67
2023/05/15 09:54:36;;;;;;;0.70;0.63;;;15.10;99.90;;;;;;5011432;28;20048;-67
2023/05/15 09:57:10;;;;;;;0.88;0.88;;;15.10;99.90;;;;;;4997484;28;20127;-66
2023/05/15 09:59:41;;;;;;;0.20;0.20;;;15.20;99.90;;;;;;5004861;28;20046;-66
2023/05/15 10:02:07;;;;;;;0.10;0.10;;;15.20;99.90;;;;;;5004556;28;20050;-67
2023/05/15 10:04:35;;;;;;;0.22;0.22;;;15.20;99.90;;;;;;5007183;28;20045;-67
2023/05/15 10:07:01;;;;;;;0.15;0.15;;;15.20;99.90;;;;;;5009108;28;20045;-67
2023/05/15 10:09:31;;;;;;;0.30;0.30;;;15.20;99.90;;;;;;5006035;28;20477;-65
2023/05/15 10:11:57;;;;;;;0.25;0.25;;;15.20;99.90;;;;;;4990916;28;20045;-65
2023/05/15 10:14:25;;;;;;;0.68;0.25;;;15.30;99.90;;;;;;5008912;28;20088;-65
2023/05/15 10:16:51;;;;;;;0.17;0.17;;;15.40;99.90;;;;;;4996049;28;20049;-66
2023/05/15 10:19:21;;;;;;;0.52;0.52;;;15.50;99.90;;;;;;5008540;28;20161;-66
2023/05/15 10:21:47;;;;;;;0.20;0.20;;;15.30;99.90;;;;;;5005277;28;20088;-66
2023/05/15 10:24:15;;;;;;;0.00;0.00;;;15.30;99.90;;;;;;5006968;28;20466;-66
2023/05/15 10:26:41;;;;;;;0.30;0.30;;;15.30;99.90;;;;;;5004412;28;20129;-66
2023/05/15 10:29:12;;;;;;;0.17;0.17;;;15.30;99.90;;;;;;4987852;28;20046;-66
2023/05/15 10:31:38;;;;;;;2.25;0.43;;;15.30;99.90;;;;;;5008513;28;20048;-66
2023/05/15 10:34:05;;;;;;;0.20;0.20;;;15.40;99.90;;;;;;4988522;28;20144;-66
2023/05/15 10:36:32;;;;;;;0.00;0.00;;;15.50;99.90;;;;;;5005060;28;20529;-66
2023/05/15 10:39:01;;;;;;;1.75;1.65;;;15.30;99.90;;;;;;5007927;28;20051;-66
2023/05/15 10:41:34;;;;;;;0.10;0.10;;;15.30;99.90;;;;;;5001405;28;20062;-65
2023/05/15 10:44:00;;;;;;;0.17;0.17;;;15.40;99.90;;;;;;4982137;28;20084;-66
2023/05/15 10:46:28;;;;;;;0.52;0.52;;;15.30;99.90;;;;;;4999810;28;20564;-65
2023/05/15 10:48:54;;;;;;;0.00;0.00;;;15.40;99.90;;;;;;5012626;28;20038;-65
2023/05/15 10:51:39;;;;;;;0.47;0.47;;;15.40;99.90;;;;;;5012447;28;20393;-65
2023/05/15 10:54:04;;;;;;;0.20;0.20;;;15.30;99.90;;;;;;5001210;28;20045;-66
2023/05/15 10:56:32;;;;;;;1.00;0.90;;;15.20;99.90;;;;;;5011953;28;20042;-65
2023/05/15 10:59:03;;;;;;;0.05;0.05;;;15.10;99.90;;;;;;5012084;28;20042;-65
2023/05/15 11:01:31;;;;;;;0.32;0.32;;;15.00;99.90;;;;;;4987885;28;20053;-66
2023/05/15 11:04:14;;;;;;;0.45;0.38;;;14.90;99.90;;;;;;5010789;28;20058;-65
2023/05/15 11:06:45;;;;;;;0.38;0.38;;;14.90;99.90;;;;;;5006571;28;20053;-65
2023/05/15 11:09:26;;;;;;;0.47;0.47;;;14.80;99.90;;;;;;4991701;28;20054;-65
2023/05/15 11:11:55;;;;;;;0.03;0.03;;;14.80;99.90;;;;;;5016061;28;20199;-65
2023/05/15 11:14:29;;;;;;;0.10;0.10;;;14.90;99.90;;;;;;5004521;28;20145;-65
2023/05/15 11:16:56;;;;;;;0.20;0.20;;;14.90;99.90;;;;;;5011945;28;20424;-65
2023/05/15 11:19:22;;;;;;;0.00;0.00;;;14.90;99.90;;;;;;5010063;28;20104;-65
2023/05/15 11:22:14;;;;;;;0.08;0.08;;;14.90;99.90;;;;;;5006284;28;20053;-65
2023/05/15 11:25:04;;;;;;;0.22;0.22;;;14.90;99.90;;;;;;5008856;28;20122;-65
2023/05/15 11:27:32;;;;;;;5.70;1.48;;;14.90;99.90;;;;;;5009392;28;20069;-64
2023/05/15 11:30:21;;;;;;;0.10;0.10;;;15.00;99.90;;;;;;4995554;28;20548;-65
2023/05/15 11:32:46;;;;;;;0.10;0.10;;;15.00;99.90;;;;;;4991772;28;20081;-65
2023/05/15 11:35:32;;;;;;;0.00;0.00;;;15.00;99.90;;;;;;5010562;28;20111;-65
2023/05/15 11:38:09;;;;;;;0.20;0.20;;;15.00;99.90;;;;;;5002131;28;20501;-65
2023/05/15 11:40:43;;;;;;;0.70;0.70;;;15.10;99.90;;;;;;5010922;28;20053;-65
2023/05/15 11:43:24;;;;;;;0.90;0.90;;;15.10;99.90;;;;;;4991641;28;20563;-65
2023/05/15 11:45:52;;;;;;;0.20;0.20;;;15.10;99.90;;;;;;5007840;28;20080;-65
2023/05/15 11:48:18;;;;;;;0.77;0.60;;;15.00;99.90;;;;;;4991593;28;20409;-64
2023/05/15 11:50:44;;;;;;;0.17;0.17;;;15.00;99.90;;;;;;5009971;28;20474;-64
2023/05/15 11:53:10;;;;;;;0.28;0.28;;;15.00;99.90;;;;;;5004052;28;20044;-64
2023/05/15 11:55:39;;;;;;;0.95;0.40;;;15.00;99.90;;;;;;5013051;28;20127;-64
2023/05/15 11:58:09;;;;;;;0.15;0.15;;;15.00;99.90;;;;;;5008607;28;20042;-65
2023/05/15 12:00:35;;;;;;;0.57;0.57;;;14.90;99.90;;;;;;5008512;28;20042;-64
2023/05/15 12:03:02;;;;;;;0.10;0.10;;;15.00;99.90;;;;;;5002286;28;20095;-64
2023/05/15 12:05:29;;;;;;;0.10;0.10;;;14.90;99.90;;;;;;5009482;28;20061;-65
2023/05/15 12:07:56;;;;;;;0.73;0.73;;;14.90;99.90;;;;;;5011722;28;20053;-65
2023/05/15 12:10:21;;;;;;;0.00;0.00;;;14.80;99.90;;;;;;5014230;28;20050;-65
2023/05/15 12:12:48;;;;;;;0.43;0.43;;;14.90;99.90;;;;;;5015435;28;20061;-65
2023/05/15 12:15:15;;;;;;;0.10;0.10;;;14.80;99.90;;;;;;5002822;28;20050;-65
2023/05/15 12:17:44;;;;;;;0.30;0.30;;;14.80;99.90;;;;;;5008183;28;20049;-65
2023/05/15 12:20:15;;;;;;;0.20;0.20;;;14.70;99.90;;;;;;5008683;28;20088;-65
2023/05/15 12:22:41;;;;;;;0.20;0.20;;;14.80;99.90;;;;;;4994242;28;20100;-65
2023/05/15 12:25:07;;;;;;;0.77;0.30;;;14.80;99.90;;;;;;5007231;28;20482;-65
2023/05/15 12:27:35;;;;;;;0.88;0.88;;;14.80;99.90;;;;;;5011144;28;20136;-65
2023/05/15 12:30:02;;;;;;;0.57;0.57;;;14.90;99.90;;;;;;4994483;28;20486;-65
2023/05/15 12:32:31;;;;;;;0.10;0.10;;;14.90;99.90;;;;;;5007784;28;20060;-65
2023/05/15 12:34:56;;;;;;;0.00;0.00;;;15.00;99.90;;;;;;5006185;28;20057;-65
2023/05/15 12:37:22;;;;;;;0.00;0.00;;;15.00;99.90;;;;;;5010988;28;20045;-65
2023/05/15 12:39:55;;;;;;;0.20;0.20;;;14.90;99.90;;;;;;5001941;28;20100;-65
2023/05/15 12:42:22;;;;;;;0.30;0.30;;;14.90;99.90;;;;;;4995076;28;20488;-65
2023/05/15 12:44:54;;;;;;;0.10;0.10;;;14.90;99.90;;;;;;5006471;28;20128;-65
2023/05/15 12:47:25;;;;;;;0.20;0.20;;;14.90;99.90;;;;;;5006669;28;20562;-65
2023/05/15 12:49:57;;;;;;;1.10;0.50;;;14.90;99.90;;;;;;5008948;28;20052;-64